sensor_id;sensor_type;location;lat;lon;timestamp;P1;durP1;ratioP1;P2;durP2;ratioP2
67237;SDS011;54149;52.708;6.178;2023-12-07T00:00:16;54.00;;;18.40;;
67237;SDS011;54149;52.708;6.178;2023-12-07T00:02:42;49.35;;;16.20;;
67237;SDS011;54149;52.708;6.178;2023-12-07T00:05:08;47.63;;;16.67;;
67237;SDS011;54149;52.708;6.178;2023-12-07T00:07:34;48.08;;;15.13;;
67237;SDS011;54149;52.708;6.178;2023-12-07T00:10:00;41.58;;;14.75;;
67237;SDS011;54149;52.708;6.178;2023-12-07T00:12:26;52.10;;;16.83;;
67237;SDS011;54149;52.708;6.178;2023-12-07T00:14:52;47.08;;;17.65;;
67237;SDS011;54149;52.708;6.178;2023-12-07T00:17:19;51.58;;;18.60;;
67237;SDS011;54149;52.708;6.178;2023-12-07T00:19:45;50.50;;;17.80;;
67237;SDS011;54149;52.708;6.178;2023-12-07T00:22:11;54.95;;;17.95;;
67237;SDS011;54149;52.708;6.178;2023-12-07T00:24:37;52.80;;;17.95;;
67237;SDS011;54149;52.708;6.178;2023-12-07T00:27:03;59.17;;;20.35;;
67237;SDS011;54149;52.708;6.178;2023-12-07T00:29:30;60.22;;;19.55;;
67237;SDS011;54149;52.708;6.178;2023-12-07T00:31:56;51.25;;;19.42;;
67237;SDS011;54149;52.708;6.178;2023-12-07T00:34:22;57.05;;;19.35;;
67237;SDS011;54149;52.708;6.178;2023-12-07T00:36:49;59.20;;;20.77;;
67237;SDS011;54149;52.708;6.178;2023-12-07T00:39:15;63.25;;;21.52;;
67237;SDS011;54149;52.708;6.178;2023-12-07T00:41:42;56.97;;;19.95;;
67237;SDS011;54149;52.708;6.178;2023-12-07T00:44:08;60.35;;;21.00;;
67237;SDS011;54149;52.708;6.178;2023-12-07T00:46:34;69.72;;;22.88;;
67237;SDS011;54149;52.708;6.178;2023-12-07T00:49:00;61.45;;;21.17;;
67237;SDS011;54149;52.708;6.178;2023-12-07T00:51:26;61.10;;;21.48;;
67237;SDS011;54149;52.708;6.178;2023-12-07T00:53:52;57.60;;;22.65;;
67237;SDS011;54149;52.708;6.178;2023-12-07T00:56:19;63.60;;;22.88;;
67237;SDS011;54149;52.708;6.178;2023-12-07T00:58:45;66.03;;;22.20;;
67237;SDS011;54149;52.708;6.178;2023-12-07T01:01:11;64.70;;;22.65;;
67237;SDS011;54149;52.708;6.178;2023-12-07T01:03:37;59.80;;;22.38;;
67237;SDS011;54149;52.708;6.178;2023-12-07T01:06:05;63.42;;;22.05;;
67237;SDS011;54149;52.708;6.178;2023-12-07T01:08:32;64.35;;;21.08;;
67237;SDS011;54149;52.708;6.178;2023-12-07T01:10:58;60.08;;;21.67;;
67237;SDS011;54149;52.708;6.178;2023-12-07T01:13:24;58.65;;;21.33;;
67237;SDS011;54149;52.708;6.178;2023-12-07T01:15:50;61.97;;;21.75;;
67237;SDS011;54149;52.708;6.178;2023-12-07T01:18:16;61.53;;;22.92;;
67237;SDS011;54149;52.708;6.178;2023-12-07T01:20:42;65.13;;;21.67;;
67237;SDS011;54149;52.708;6.178;2023-12-07T01:23:08;59.92;;;21.90;;
67237;SDS011;54149;52.708;6.178;2023-12-07T01:25:35;70.40;;;21.95;;
67237;SDS011;54149;52.708;6.178;2023-12-07T01:28:01;61.42;;;20.30;;
67237;SDS011;54149;52.708;6.178;2023-12-07T01:30:27;66.10;;;21.27;;
67237;SDS011;54149;52.708;6.178;2023-12-07T01:32:53;65.20;;;20.38;;
67237;SDS011;54149;52.708;6.178;2023-12-07T01:35:19;70.47;;;21.42;;
67237;SDS011;54149;52.708;6.178;2023-12-07T01:37:46;58.03;;;19.90;;
67237;SDS011;54149;52.708;6.178;2023-12-07T01:40:12;61.78;;;20.20;;
67237;SDS011;54149;52.708;6.178;2023-12-07T01:42:40;64.55;;;20.10;;
67237;SDS011;54149;52.708;6.178;2023-12-07T01:45:06;75.85;;;21.55;;
67237;SDS011;54149;52.708;6.178;2023-12-07T01:47:33;58.05;;;19.42;;
67237;SDS011;54149;52.708;6.178;2023-12-07T01:50:00;61.92;;;21.55;;
67237;SDS011;54149;52.708;6.178;2023-12-07T01:52:29;65.28;;;20.33;;
67237;SDS011;54149;52.708;6.178;2023-12-07T01:54:56;67.80;;;20.00;;
67237;SDS011;54149;52.708;6.178;2023-12-07T01:57:22;59.95;;;21.02;;
67237;SDS011;54149;52.708;6.178;2023-12-07T01:59:49;59.50;;;20.35;;
67237;SDS011;54149;52.708;6.178;2023-12-07T02:02:16;61.58;;;19.67;;
67237;SDS011;54149;52.708;6.178;2023-12-07T02:04:42;60.38;;;20.70;;
67237;SDS011;54149;52.708;6.178;2023-12-07T02:07:08;58.78;;;19.80;;
67237;SDS011;54149;52.708;6.178;2023-12-07T02:09:34;64.82;;;20.60;;
67237;SDS011;54149;52.708;6.178;2023-12-07T02:12:00;57.28;;;19.92;;
67237;SDS011;54149;52.708;6.178;2023-12-07T02:14:27;62.92;;;21.45;;
67237;SDS011;54149;52.708;6.178;2023-12-07T02:22:17;64.60;;;20.10;;
67237;SDS011;54149;52.708;6.178;2023-12-07T02:24:47;68.50;;;21.55;;
67237;SDS011;54149;52.708;6.178;2023-12-07T02:27:14;57.20;;;19.63;;
67237;SDS011;54149;52.708;6.178;2023-12-07T02:29:40;59.90;;;20.23;;
67237;SDS011;54149;52.708;6.178;2023-12-07T02:32:06;62.50;;;20.98;;
67237;SDS011;54149;52.708;6.178;2023-12-07T02:34:32;61.72;;;20.95;;
67237;SDS011;54149;52.708;6.178;2023-12-07T02:36:58;56.38;;;19.73;;
67237;SDS011;54149;52.708;6.178;2023-12-07T02:39:26;57.60;;;19.58;;
67237;SDS011;54149;52.708;6.178;2023-12-07T02:41:52;70.25;;;22.60;;
67237;SDS011;54149;52.708;6.178;2023-12-07T02:44:19;63.88;;;20.42;;
67237;SDS011;54149;52.708;6.178;2023-12-07T02:46:45;65.15;;;22.00;;
67237;SDS011;54149;52.708;6.178;2023-12-07T02:49:11;72.20;;;23.67;;
67237;SDS011;54149;52.708;6.178;2023-12-07T02:51:37;82.88;;;26.10;;
67237;SDS011;54149;52.708;6.178;2023-12-07T02:54:03;69.72;;;23.05;;
67237;SDS011;54149;52.708;6.178;2023-12-07T02:56:29;63.00;;;21.30;;
67237;SDS011;54149;52.708;6.178;2023-12-07T02:58:56;75.90;;;23.50;;
67237;SDS011;54149;52.708;6.178;2023-12-07T03:01:22;61.15;;;21.95;;
67237;SDS011;54149;52.708;6.178;2023-12-07T03:03:48;76.72;;;23.83;;
67237;SDS011;54149;52.708;6.178;2023-12-07T03:06:14;67.20;;;23.42;;
67237;SDS011;54149;52.708;6.178;2023-12-07T03:08:42;67.13;;;23.70;;
67237;SDS011;54149;52.708;6.178;2023-12-07T03:11:08;63.13;;;22.20;;
67237;SDS011;54149;52.708;6.178;2023-12-07T03:13:34;58.17;;;20.55;;
67237;SDS011;54149;52.708;6.178;2023-12-07T03:16:00;56.38;;;20.30;;
67237;SDS011;54149;52.708;6.178;2023-12-07T03:18:26;60.15;;;21.52;;
67237;SDS011;54149;52.708;6.178;2023-12-07T03:20:52;58.88;;;21.23;;
67237;SDS011;54149;52.708;6.178;2023-12-07T03:23:18;68.75;;;23.85;;
67237;SDS011;54149;52.708;6.178;2023-12-07T03:25:45;67.38;;;24.13;;
67237;SDS011;54149;52.708;6.178;2023-12-07T03:28:11;63.05;;;22.63;;
67237;SDS011;54149;52.708;6.178;2023-12-07T03:30:37;64.88;;;23.48;;
67237;SDS011;54149;52.708;6.178;2023-12-07T03:33:03;62.42;;;24.25;;
67237;SDS011;54149;52.708;6.178;2023-12-07T03:35:29;75.47;;;25.88;;
67237;SDS011;54149;52.708;6.178;2023-12-07T03:37:56;84.93;;;27.00;;
67237;SDS011;54149;52.708;6.178;2023-12-07T03:40:22;68.97;;;25.20;;
67237;SDS011;54149;52.708;6.178;2023-12-07T03:42:48;78.45;;;26.48;;
67237;SDS011;54149;52.708;6.178;2023-12-07T03:45:14;74.20;;;25.20;;
67237;SDS011;54149;52.708;6.178;2023-12-07T03:47:40;67.70;;;25.67;;
67237;SDS011;54149;52.708;6.178;2023-12-07T03:50:06;73.13;;;27.27;;
67237;SDS011;54149;52.708;6.178;2023-12-07T03:52:33;87.50;;;30.42;;
67237;SDS011;54149;52.708;6.178;2023-12-07T03:54:59;90.47;;;30.67;;
67237;SDS011;54149;52.708;6.178;2023-12-07T03:57:25;87.57;;;30.48;;
67237;SDS011;54149;52.708;6.178;2023-12-07T03:59:51;77.72;;;28.27;;
67237;SDS011;54149;52.708;6.178;2023-12-07T04:02:18;90.18;;;29.77;;
67237;SDS011;54149;52.708;6.178;2023-12-07T04:04:44;86.20;;;32.97;;
67237;SDS011;54149;52.708;6.178;2023-12-07T04:07:11;91.50;;;32.67;;
67237;SDS011;54149;52.708;6.178;2023-12-07T04:09:37;89.35;;;32.10;;
67237;SDS011;54149;52.708;6.178;2023-12-07T04:12:03;88.35;;;31.58;;
67237;SDS011;54149;52.708;6.178;2023-12-07T04:14:29;86.30;;;29.20;;
67237;SDS011;54149;52.708;6.178;2023-12-07T04:16:56;90.40;;;33.00;;
67237;SDS011;54149;52.708;6.178;2023-12-07T04:19:22;101.03;;;33.25;;
67237;SDS011;54149;52.708;6.178;2023-12-07T04:21:50;88.55;;;32.10;;
67237;SDS011;54149;52.708;6.178;2023-12-07T04:24:16;92.15;;;32.30;;
67237;SDS011;54149;52.708;6.178;2023-12-07T04:26:43;95.15;;;32.92;;
67237;SDS011;54149;52.708;6.178;2023-12-07T04:29:09;92.97;;;32.80;;
67237;SDS011;54149;52.708;6.178;2023-12-07T04:31:35;97.25;;;33.30;;
67237;SDS011;54149;52.708;6.178;2023-12-07T04:34:01;96.18;;;32.78;;
67237;SDS011;54149;52.708;6.178;2023-12-07T04:36:27;95.13;;;32.88;;
67237;SDS011;54149;52.708;6.178;2023-12-07T04:38:53;96.15;;;33.17;;
67237;SDS011;54149;52.708;6.178;2023-12-07T04:41:19;101.82;;;33.97;;
67237;SDS011;54149;52.708;6.178;2023-12-07T04:43:45;86.07;;;33.42;;
67237;SDS011;54149;52.708;6.178;2023-12-07T04:46:12;98.72;;;32.90;;
67237;SDS011;54149;52.708;6.178;2023-12-07T04:48:38;96.47;;;35.05;;
67237;SDS011;54149;52.708;6.178;2023-12-07T04:51:05;90.47;;;34.92;;
67237;SDS011;54149;52.708;6.178;2023-12-07T04:53:31;101.00;;;34.95;;
67237;SDS011;54149;52.708;6.178;2023-12-07T04:55:58;88.20;;;32.25;;
67237;SDS011;54149;52.708;6.178;2023-12-07T04:58:24;91.10;;;33.03;;
67237;SDS011;54149;52.708;6.178;2023-12-07T05:00:50;94.45;;;33.25;;
67237;SDS011;54149;52.708;6.178;2023-12-07T05:03:16;99.22;;;34.70;;
67237;SDS011;54149;52.708;6.178;2023-12-07T05:05:42;98.82;;;36.10;;
67237;SDS011;54149;52.708;6.178;2023-12-07T05:08:08;111.32;;;35.35;;
67237;SDS011;54149;52.708;6.178;2023-12-07T05:10:35;99.97;;;33.50;;
67237;SDS011;54149;52.708;6.178;2023-12-07T05:13:01;100.30;;;33.20;;
67237;SDS011;54149;52.708;6.178;2023-12-07T05:15:27;110.55;;;33.92;;
67237;SDS011;54149;52.708;6.178;2023-12-07T05:17:53;103.00;;;35.95;;
67237;SDS011;54149;52.708;6.178;2023-12-07T05:20:19;95.03;;;33.85;;
67237;SDS011;54149;52.708;6.178;2023-12-07T05:22:47;98.90;;;34.78;;
67237;SDS011;54149;52.708;6.178;2023-12-07T05:25:14;99.03;;;35.17;;
67237;SDS011;54149;52.708;6.178;2023-12-07T05:27:43;101.90;;;36.13;;
67237;SDS011;54149;52.708;6.178;2023-12-07T05:30:09;102.43;;;35.47;;
67237;SDS011;54149;52.708;6.178;2023-12-07T05:32:35;102.13;;;35.45;;
67237;SDS011;54149;52.708;6.178;2023-12-07T05:35:02;109.25;;;37.28;;
67237;SDS011;54149;52.708;6.178;2023-12-07T05:37:28;103.22;;;35.33;;
67237;SDS011;54149;52.708;6.178;2023-12-07T05:39:55;100.13;;;35.83;;
67237;SDS011;54149;52.708;6.178;2023-12-07T05:42:21;96.07;;;33.22;;
67237;SDS011;54149;52.708;6.178;2023-12-07T05:44:47;98.28;;;34.65;;
67237;SDS011;54149;52.708;6.178;2023-12-07T05:47:13;102.53;;;35.50;;
67237;SDS011;54149;52.708;6.178;2023-12-07T05:49:39;90.15;;;31.77;;
67237;SDS011;54149;52.708;6.178;2023-12-07T05:52:05;105.43;;;36.13;;
67237;SDS011;54149;52.708;6.178;2023-12-07T05:54:32;106.00;;;35.72;;
67237;SDS011;54149;52.708;6.178;2023-12-07T05:56:59;107.32;;;36.08;;
67237;SDS011;54149;52.708;6.178;2023-12-07T05:59:25;97.80;;;31.73;;
67237;SDS011;54149;52.708;6.178;2023-12-07T06:01:51;111.13;;;35.05;;
67237;SDS011;54149;52.708;6.178;2023-12-07T06:04:18;104.05;;;33.35;;
67237;SDS011;54149;52.708;6.178;2023-12-07T06:06:45;103.78;;;36.00;;
67237;SDS011;54149;52.708;6.178;2023-12-07T06:09:11;114.13;;;37.97;;
67237;SDS011;54149;52.708;6.178;2023-12-07T06:11:37;102.82;;;35.67;;
67237;SDS011;54149;52.708;6.178;2023-12-07T06:14:04;107.13;;;34.10;;
67237;SDS011;54149;52.708;6.178;2023-12-07T06:16:31;100.15;;;32.60;;
67237;SDS011;54149;52.708;6.178;2023-12-07T06:18:57;91.72;;;31.17;;
67237;SDS011;54149;52.708;6.178;2023-12-07T06:21:23;94.57;;;32.95;;
67237;SDS011;54149;52.708;6.178;2023-12-07T06:23:50;92.38;;;34.13;;
67237;SDS011;54149;52.708;6.178;2023-12-07T06:26:17;82.63;;;30.33;;
67237;SDS011;54149;52.708;6.178;2023-12-07T06:28:44;93.45;;;31.13;;
67237;SDS011;54149;52.708;6.178;2023-12-07T06:31:11;92.15;;;31.23;;
67237;SDS011;54149;52.708;6.178;2023-12-07T06:33:37;93.68;;;31.73;;
67237;SDS011;54149;52.708;6.178;2023-12-07T06:36:03;96.03;;;31.77;;
67237;SDS011;54149;52.708;6.178;2023-12-07T06:38:30;86.13;;;29.75;;
67237;SDS011;54149;52.708;6.178;2023-12-07T06:40:56;100.93;;;31.27;;
67237;SDS011;54149;52.708;6.178;2023-12-07T06:43:22;85.72;;;31.38;;
67237;SDS011;54149;52.708;6.178;2023-12-07T06:45:48;89.05;;;31.98;;
67237;SDS011;54149;52.708;6.178;2023-12-07T06:48:14;95.63;;;32.72;;
67237;SDS011;54149;52.708;6.178;2023-12-07T06:50:41;92.30;;;31.65;;
67237;SDS011;54149;52.708;6.178;2023-12-07T06:53:07;92.63;;;31.83;;
67237;SDS011;54149;52.708;6.178;2023-12-07T06:55:33;91.38;;;31.38;;
67237;SDS011;54149;52.708;6.178;2023-12-07T06:57:59;98.30;;;34.80;;
67237;SDS011;54149;52.708;6.178;2023-12-07T07:00:25;88.13;;;31.58;;
67237;SDS011;54149;52.708;6.178;2023-12-07T07:02:51;98.72;;;30.90;;
67237;SDS011;54149;52.708;6.178;2023-12-07T07:05:17;91.45;;;31.55;;
67237;SDS011;54149;52.708;6.178;2023-12-07T07:07:45;103.03;;;32.10;;
67237;SDS011;54149;52.708;6.178;2023-12-07T07:10:11;86.50;;;30.17;;
67237;SDS011;54149;52.708;6.178;2023-12-07T07:12:37;91.00;;;31.73;;
67237;SDS011;54149;52.708;6.178;2023-12-07T07:15:04;95.15;;;31.13;;
67237;SDS011;54149;52.708;6.178;2023-12-07T07:17:32;90.20;;;31.88;;
67237;SDS011;54149;52.708;6.178;2023-12-07T07:19:58;88.22;;;29.92;;
67237;SDS011;54149;52.708;6.178;2023-12-07T07:22:24;81.30;;;28.20;;
67237;SDS011;54149;52.708;6.178;2023-12-07T07:24:50;86.72;;;30.00;;
67237;SDS011;54149;52.708;6.178;2023-12-07T07:27:17;86.57;;;30.00;;
67237;SDS011;54149;52.708;6.178;2023-12-07T07:29:43;84.95;;;29.55;;
67237;SDS011;54149;52.708;6.178;2023-12-07T07:32:11;81.18;;;30.58;;
67237;SDS011;54149;52.708;6.178;2023-12-07T07:34:37;83.15;;;30.80;;
67237;SDS011;54149;52.708;6.178;2023-12-07T07:37:04;82.22;;;29.90;;
67237;SDS011;54149;52.708;6.178;2023-12-07T07:39:32;91.15;;;31.88;;
67237;SDS011;54149;52.708;6.178;2023-12-07T07:41:58;87.78;;;32.22;;
67237;SDS011;54149;52.708;6.178;2023-12-07T07:44:28;90.35;;;32.17;;
67237;SDS011;54149;52.708;6.178;2023-12-07T07:46:54;89.10;;;33.00;;
67237;SDS011;54149;52.708;6.178;2023-12-07T07:49:20;94.03;;;32.83;;
67237;SDS011;54149;52.708;6.178;2023-12-07T07:51:46;98.05;;;35.00;;
67237;SDS011;54149;52.708;6.178;2023-12-07T07:54:12;97.00;;;34.55;;
67237;SDS011;54149;52.708;6.178;2023-12-07T07:56:38;107.07;;;35.30;;
67237;SDS011;54149;52.708;6.178;2023-12-07T07:59:04;114.95;;;37.63;;
67237;SDS011;54149;52.708;6.178;2023-12-07T08:01:31;109.97;;;36.13;;
67237;SDS011;54149;52.708;6.178;2023-12-07T08:03:57;105.72;;;36.30;;
67237;SDS011;54149;52.708;6.178;2023-12-07T08:06:23;110.93;;;35.58;;
67237;SDS011;54149;52.708;6.178;2023-12-07T08:08:49;100.38;;;34.88;;
67237;SDS011;54149;52.708;6.178;2023-12-07T08:11:16;99.85;;;37.15;;
67237;SDS011;54149;52.708;6.178;2023-12-07T08:13:42;103.05;;;35.58;;
67237;SDS011;54149;52.708;6.178;2023-12-07T08:16:08;104.65;;;33.55;;
67237;SDS011;54149;52.708;6.178;2023-12-07T08:18:34;107.68;;;34.88;;
67237;SDS011;54149;52.708;6.178;2023-12-07T08:21:01;106.30;;;36.45;;
67237;SDS011;54149;52.708;6.178;2023-12-07T08:23:27;116.78;;;37.15;;
67237;SDS011;54149;52.708;6.178;2023-12-07T08:25:53;108.13;;;36.83;;
67237;SDS011;54149;52.708;6.178;2023-12-07T08:28:22;113.32;;;39.53;;
67237;SDS011;54149;52.708;6.178;2023-12-07T08:30:50;108.85;;;36.97;;
67237;SDS011;54149;52.708;6.178;2023-12-07T08:33:17;116.13;;;39.10;;
67237;SDS011;54149;52.708;6.178;2023-12-07T08:35:43;110.95;;;37.53;;
67237;SDS011;54149;52.708;6.178;2023-12-07T08:38:09;114.78;;;38.15;;
67237;SDS011;54149;52.708;6.178;2023-12-07T08:40:35;121.40;;;39.63;;
67237;SDS011;54149;52.708;6.178;2023-12-07T08:43:01;128.05;;;42.88;;
67237;SDS011;54149;52.708;6.178;2023-12-07T08:45:30;123.40;;;38.80;;
67237;SDS011;54149;52.708;6.178;2023-12-07T08:47:56;110.55;;;39.47;;
67237;SDS011;54149;52.708;6.178;2023-12-07T08:50:22;124.82;;;43.72;;
67237;SDS011;54149;52.708;6.178;2023-12-07T08:52:48;125.07;;;41.85;;
67237;SDS011;54149;52.708;6.178;2023-12-07T08:55:15;114.05;;;38.13;;
67237;SDS011;54149;52.708;6.178;2023-12-07T08:57:42;121.68;;;41.05;;
67237;SDS011;54149;52.708;6.178;2023-12-07T09:00:08;137.30;;;39.67;;
67237;SDS011;54149;52.708;6.178;2023-12-07T09:02:35;113.97;;;37.45;;
67237;SDS011;54149;52.708;6.178;2023-12-07T09:05:04;132.07;;;38.50;;
67237;SDS011;54149;52.708;6.178;2023-12-07T09:07:31;131.18;;;40.47;;
67237;SDS011;54149;52.708;6.178;2023-12-07T09:09:57;176.32;;;42.67;;
67237;SDS011;54149;52.708;6.178;2023-12-07T09:12:26;137.98;;;38.42;;
67237;SDS011;54149;52.708;6.178;2023-12-07T09:14:52;191.63;;;39.95;;
67237;SDS011;54149;52.708;6.178;2023-12-07T09:17:18;132.48;;;37.95;;
67237;SDS011;54149;52.708;6.178;2023-12-07T09:19:45;150.27;;;36.65;;
67237;SDS011;54149;52.708;6.178;2023-12-07T09:22:11;160.57;;;34.92;;
67237;SDS011;54149;52.708;6.178;2023-12-07T09:24:39;125.00;;;35.63;;
67237;SDS011;54149;52.708;6.178;2023-12-07T09:27:05;161.88;;;37.28;;
67237;SDS011;54149;52.708;6.178;2023-12-07T09:29:32;146.23;;;35.45;;
67237;SDS011;54149;52.708;6.178;2023-12-07T09:31:58;144.25;;;35.58;;
67237;SDS011;54149;52.708;6.178;2023-12-07T09:34:24;190.43;;;37.00;;
67237;SDS011;54149;52.708;6.178;2023-12-07T09:36:50;234.82;;;38.15;;
67237;SDS011;54149;52.708;6.178;2023-12-07T09:39:30;155.32;;;36.13;;
67237;SDS011;54149;52.708;6.178;2023-12-07T09:41:56;181.02;;;35.95;;
67237;SDS011;54149;52.708;6.178;2023-12-07T09:44:23;153.38;;;35.53;;
67237;SDS011;54149;52.708;6.178;2023-12-07T09:46:49;176.27;;;36.28;;
67237;SDS011;54149;52.708;6.178;2023-12-07T09:49:15;154.43;;;34.97;;
67237;SDS011;54149;52.708;6.178;2023-12-07T09:51:42;243.02;;;40.15;;
67237;SDS011;54149;52.708;6.178;2023-12-07T09:54:09;211.88;;;38.78;;
67237;SDS011;54149;52.708;6.178;2023-12-07T09:56:36;237.88;;;38.95;;
67237;SDS011;54149;52.708;6.178;2023-12-07T09:59:02;351.15;;;50.28;;
67237;SDS011;54149;52.708;6.178;2023-12-07T10:01:28;191.70;;;38.47;;
67237;SDS011;54149;52.708;6.178;2023-12-07T10:04:16;192.02;;;38.67;;
67237;SDS011;54149;52.708;6.178;2023-12-07T10:06:44;162.18;;;35.83;;
67237;SDS011;54149;52.708;6.178;2023-12-07T10:09:11;219.23;;;38.20;;
67237;SDS011;54149;52.708;6.178;2023-12-07T10:11:37;222.25;;;36.65;;
67237;SDS011;54149;52.708;6.178;2023-12-07T10:14:07;205.82;;;39.13;;
67237;SDS011;54149;52.708;6.178;2023-12-07T10:16:34;149.68;;;36.05;;
67237;SDS011;54149;52.708;6.178;2023-12-07T10:19:13;167.90;;;34.83;;
67237;SDS011;54149;52.708;6.178;2023-12-07T10:21:40;245.63;;;42.90;;
67237;SDS011;54149;52.708;6.178;2023-12-07T10:24:07;196.18;;;38.58;;
67237;SDS011;54149;52.708;6.178;2023-12-07T10:26:33;288.95;;;40.83;;
67237;SDS011;54149;52.708;6.178;2023-12-07T10:29:01;148.52;;;34.85;;
67237;SDS011;54149;52.708;6.178;2023-12-07T10:31:34;365.35;;;46.70;;
67237;SDS011;54149;52.708;6.178;2023-12-07T10:34:09;261.83;;;44.42;;
67237;SDS011;54149;52.708;6.178;2023-12-07T10:36:35;201.60;;;36.78;;
67237;SDS011;54149;52.708;6.178;2023-12-07T10:39:01;285.52;;;43.85;;
67237;SDS011;54149;52.708;6.178;2023-12-07T10:41:31;260.15;;;44.65;;
67237;SDS011;54149;52.708;6.178;2023-12-07T10:44:00;206.70;;;40.00;;
67237;SDS011;54149;52.708;6.178;2023-12-07T10:46:27;190.75;;;38.67;;
67237;SDS011;54149;52.708;6.178;2023-12-07T10:49:00;200.50;;;40.75;;
67237;SDS011;54149;52.708;6.178;2023-12-07T10:54:06;211.88;;;39.10;;
67237;SDS011;54149;52.708;6.178;2023-12-07T10:56:43;204.00;;;40.10;;
67237;SDS011;54149;52.708;6.178;2023-12-07T10:59:09;191.20;;;40.08;;
67237;SDS011;54149;52.708;6.178;2023-12-07T11:01:39;191.10;;;40.80;;
67237;SDS011;54149;52.708;6.178;2023-12-07T11:04:05;206.02;;;41.10;;
67237;SDS011;54149;52.708;6.178;2023-12-07T11:06:35;248.23;;;44.85;;
67237;SDS011;54149;52.708;6.178;2023-12-07T11:09:03;206.18;;;42.45;;
67237;SDS011;54149;52.708;6.178;2023-12-07T11:14:04;205.48;;;42.95;;
67237;SDS011;54149;52.708;6.178;2023-12-07T11:16:31;211.23;;;42.30;;
67237;SDS011;54149;52.708;6.178;2023-12-07T11:18:58;254.88;;;44.83;;
67237;SDS011;54149;52.708;6.178;2023-12-07T11:21:25;215.70;;;42.17;;
67237;SDS011;54149;52.708;6.178;2023-12-07T11:23:52;215.10;;;43.30;;
67237;SDS011;54149;52.708;6.178;2023-12-07T11:26:22;201.32;;;44.42;;
67237;SDS011;54149;52.708;6.178;2023-12-07T11:28:49;247.85;;;46.65;;
67237;SDS011;54149;52.708;6.178;2023-12-07T11:31:16;254.23;;;46.30;;
67237;SDS011;54149;52.708;6.178;2023-12-07T11:33:42;242.77;;;50.28;;
67237;SDS011;54149;52.708;6.178;2023-12-07T11:36:10;230.30;;;46.42;;
67237;SDS011;54149;52.708;6.178;2023-12-07T11:38:37;212.77;;;45.05;;
67237;SDS011;54149;52.708;6.178;2023-12-07T11:41:07;310.35;;;49.95;;
67237;SDS011;54149;52.708;6.178;2023-12-07T11:46:08;209.43;;;45.40;;
67237;SDS011;54149;52.708;6.178;2023-12-07T11:48:35;279.50;;;48.20;;
67237;SDS011;54149;52.708;6.178;2023-12-07T11:53:28;266.42;;;47.33;;
67237;SDS011;54149;52.708;6.178;2023-12-07T11:55:58;171.27;;;42.60;;
67237;SDS011;54149;52.708;6.178;2023-12-07T11:58:28;282.38;;;51.03;;
67237;SDS011;54149;52.708;6.178;2023-12-07T12:00:54;246.90;;;48.50;;
67237;SDS011;54149;52.708;6.178;2023-12-07T12:03:24;190.68;;;42.67;;
67237;SDS011;54149;52.708;6.178;2023-12-07T12:05:50;202.05;;;46.65;;
67237;SDS011;54149;52.708;6.178;2023-12-07T12:08:17;297.92;;;52.83;;
67237;SDS011;54149;52.708;6.178;2023-12-07T12:10:44;250.30;;;48.22;;
67237;SDS011;54149;52.708;6.178;2023-12-07T12:13:10;206.73;;;44.30;;
67237;SDS011;54149;52.708;6.178;2023-12-07T12:15:40;219.93;;;41.38;;
67237;SDS011;54149;52.708;6.178;2023-12-07T12:18:06;193.88;;;41.33;;
67237;SDS011;54149;52.708;6.178;2023-12-07T12:20:33;299.75;;;49.05;;
67237;SDS011;54149;52.708;6.178;2023-12-07T12:22:59;169.82;;;41.28;;
67237;SDS011;54149;52.708;6.178;2023-12-07T12:25:27;175.93;;;43.28;;
67237;SDS011;54149;52.708;6.178;2023-12-07T12:27:54;207.65;;;41.05;;
67237;SDS011;54149;52.708;6.178;2023-12-07T12:30:21;185.02;;;40.13;;
67237;SDS011;54149;52.708;6.178;2023-12-07T12:32:48;183.38;;;41.22;;
67237;SDS011;54149;52.708;6.178;2023-12-07T12:35:15;147.20;;;37.28;;
67237;SDS011;54149;52.708;6.178;2023-12-07T12:37:42;145.43;;;35.05;;
67237;SDS011;54149;52.708;6.178;2023-12-07T12:40:09;136.80;;;35.95;;
67237;SDS011;54149;52.708;6.178;2023-12-07T12:42:35;153.63;;;38.70;;
67237;SDS011;54149;52.708;6.178;2023-12-07T12:45:05;166.50;;;39.05;;
67237;SDS011;54149;52.708;6.178;2023-12-07T12:47:31;128.88;;;37.10;;
67237;SDS011;54149;52.708;6.178;2023-12-07T12:49:59;136.38;;;37.25;;
67237;SDS011;54149;52.708;6.178;2023-12-07T12:52:25;128.23;;;35.58;;
67237;SDS011;54149;52.708;6.178;2023-12-07T12:54:52;124.80;;;36.15;;
67237;SDS011;54149;52.708;6.178;2023-12-07T12:57:18;132.77;;;37.45;;
67237;SDS011;54149;52.708;6.178;2023-12-07T12:59:44;144.02;;;38.17;;
67237;SDS011;54149;52.708;6.178;2023-12-07T13:02:11;130.80;;;35.88;;
67237;SDS011;54149;52.708;6.178;2023-12-07T13:04:37;126.55;;;35.78;;
67237;SDS011;54149;52.708;6.178;2023-12-07T13:07:04;146.70;;;37.22;;
67237;SDS011;54149;52.708;6.178;2023-12-07T13:09:30;155.10;;;38.45;;
67237;SDS011;54149;52.708;6.178;2023-12-07T13:11:57;139.70;;;37.05;;
67237;SDS011;54149;52.708;6.178;2023-12-07T13:14:23;145.20;;;37.28;;
67237;SDS011;54149;52.708;6.178;2023-12-07T13:16:49;147.50;;;38.10;;
67237;SDS011;54149;52.708;6.178;2023-12-07T13:19:16;134.27;;;36.17;;
67237;SDS011;54149;52.708;6.178;2023-12-07T13:21:42;152.23;;;39.28;;
67237;SDS011;54149;52.708;6.178;2023-12-07T13:24:08;137.85;;;36.17;;
67237;SDS011;54149;52.708;6.178;2023-12-07T13:26:38;138.65;;;37.45;;
67237;SDS011;54149;52.708;6.178;2023-12-07T13:29:04;137.15;;;38.33;;
67237;SDS011;54149;52.708;6.178;2023-12-07T13:31:33;162.48;;;40.78;;
67237;SDS011;54149;52.708;6.178;2023-12-07T13:34:00;152.10;;;37.35;;
67237;SDS011;54149;52.708;6.178;2023-12-07T13:36:26;148.15;;;35.47;;
67237;SDS011;54149;52.708;6.178;2023-12-07T13:38:57;135.98;;;36.00;;
67237;SDS011;54149;52.708;6.178;2023-12-07T13:41:23;137.95;;;34.42;;
67237;SDS011;54149;52.708;6.178;2023-12-07T13:43:49;127.78;;;34.85;;
67237;SDS011;54149;52.708;6.178;2023-12-07T13:46:19;144.38;;;37.17;;
67237;SDS011;54149;52.708;6.178;2023-12-07T13:48:45;135.35;;;37.05;;
67237;SDS011;54149;52.708;6.178;2023-12-07T13:51:12;145.07;;;37.85;;
67237;SDS011;54149;52.708;6.178;2023-12-07T13:53:38;140.73;;;38.15;;
67237;SDS011;54149;52.708;6.178;2023-12-07T13:56:05;137.35;;;38.75;;
67237;SDS011;54149;52.708;6.178;2023-12-07T13:58:33;152.32;;;40.38;;
67237;SDS011;54149;52.708;6.178;2023-12-07T14:01:00;167.93;;;42.13;;
67237;SDS011;54149;52.708;6.178;2023-12-07T14:03:26;155.00;;;37.88;;
67237;SDS011;54149;52.708;6.178;2023-12-07T14:05:53;158.27;;;39.65;;
67237;SDS011;54149;52.708;6.178;2023-12-07T14:08:19;136.05;;;35.45;;
67237;SDS011;54149;52.708;6.178;2023-12-07T14:10:45;147.20;;;36.47;;
67237;SDS011;54149;52.708;6.178;2023-12-07T14:13:12;151.57;;;37.25;;
67237;SDS011;54149;52.708;6.178;2023-12-07T14:15:38;135.73;;;35.90;;
67237;SDS011;54149;52.708;6.178;2023-12-07T14:18:05;151.20;;;37.17;;
67237;SDS011;54149;52.708;6.178;2023-12-07T14:20:32;144.10;;;34.25;;
67237;SDS011;54149;52.708;6.178;2023-12-07T14:22:58;152.32;;;35.67;;
67237;SDS011;54149;52.708;6.178;2023-12-07T14:25:29;156.02;;;40.35;;
67237;SDS011;54149;52.708;6.178;2023-12-07T14:27:55;179.57;;;41.40;;